createdAt,value
2022-11-29T00:01:16.526Z,28.77
2022-11-29T00:03:44.694Z,27.53
2022-11-29T00:06:14.437Z,29.70
2022-11-29T00:08:42.453Z,27.00
2022-11-29T00:11:14.012Z,27.67
2022-11-29T00:13:41.981Z,28.03
2022-11-29T00:16:12.138Z,27.77
2022-11-29T00:18:39.823Z,27.87
2022-11-29T00:21:08.600Z,27.43
2022-11-29T00:23:36.824Z,28.03
2022-11-29T00:26:05.505Z,27.70
2022-11-29T00:28:34.958Z,29.67
2022-11-29T00:31:02.665Z,29.10
2022-11-29T00:33:30.306Z,24.87
2022-11-29T00:36:02.309Z,26.20
2022-11-29T00:38:29.987Z,27.73
2022-11-29T00:40:57.612Z,31.67
2022-11-29T00:43:25.255Z,26.43
2022-11-29T00:45:54.312Z,27.83
2022-11-29T00:48:22.083Z,29.87
2022-11-29T00:50:49.765Z,28.53
2022-11-29T00:53:17.529Z,30.13
2022-11-29T00:55:45.280Z,29.60
2022-11-29T00:58:12.946Z,34.33
2022-11-29T01:00:40.635Z,28.07
2022-11-29T01:03:09.675Z,27.00
2022-11-29T01:05:37.364Z,29.33
2022-11-29T01:08:05.220Z,26.53
2022-11-29T01:10:33.474Z,27.97
2022-11-29T01:13:01.187Z,25.73
2022-11-29T01:15:29.473Z,28.17
2022-11-29T01:17:57.111Z,26.20
2022-11-29T01:20:26.294Z,28.13
2022-11-29T01:22:54.120Z,29.07
2022-11-29T01:25:21.758Z,25.43
2022-11-29T01:27:49.369Z,24.60
2022-11-29T01:30:17.251Z,25.63
2022-11-29T01:32:44.915Z,26.43
2022-11-29T01:35:12.530Z,26.33
2022-11-29T01:37:41.620Z,28.43
2022-11-29T01:40:09.936Z,25.87
2022-11-29T01:42:37.636Z,24.43
2022-11-29T01:45:16.136Z,27.50
2022-11-29T01:47:47.591Z,24.47
2022-11-29T01:50:15.520Z,27.00
2022-11-29T01:52:45.347Z,25.50
2022-11-29T01:55:13.770Z,25.87
2022-11-29T01:57:42.567Z,25.97
2022-11-29T02:00:12.891Z,25.00
2022-11-29T02:02:45.240Z,24.80
2022-11-29T02:05:15.808Z,24.80
2022-11-29T02:07:47.352Z,24.97
2022-11-29T02:10:16.408Z,25.73
2022-11-29T02:12:54.413Z,28.70
2022-11-29T02:15:43.341Z,25.70
2022-11-29T02:18:14.697Z,26.27
2022-11-29T02:21:17.446Z,24.53
2022-11-29T02:24:16.071Z,26.47
2022-11-29T02:27:03.570Z,25.23
2022-11-29T02:29:48.402Z,24.97
2022-11-29T02:32:35.244Z,28.93
2022-11-29T02:35:17.639Z,27.43
2022-11-29T02:38:04.647Z,31.63
2022-11-29T02:40:54.725Z,25.70
2022-11-29T02:44:07.418Z,26.50
2022-11-29T02:46:48.069Z,27.03
2022-11-29T02:49:28.550Z,29.37
2022-11-29T02:52:01.786Z,24.00
2022-11-29T02:54:37.673Z,26.97
2022-11-29T02:57:15.524Z,26.83
2022-11-29T02:59:51.756Z,26.60
2022-11-29T03:02:28.320Z,28.27
2022-11-29T03:05:04.423Z,26.73
2022-11-29T03:07:40.170Z,25.57
2022-11-29T03:10:18.920Z,23.33
2022-11-29T03:12:50.005Z,24.87
2022-11-29T03:15:28.233Z,26.60
2022-11-29T03:18:21.146Z,26.80
2022-11-29T03:21:05.395Z,23.57
2022-11-29T03:23:38.876Z,26.57
2022-11-29T03:26:11.536Z,25.73
2022-11-29T03:28:44.484Z,26.87
2022-11-29T03:31:17.193Z,23.73
2022-11-29T03:33:52.431Z,25.33
2022-11-29T03:36:34.656Z,25.83
2022-11-29T03:39:06.319Z,27.50
2022-11-29T03:41:40.234Z,26.50
2022-11-29T03:44:14.013Z,25.47
2022-11-29T03:46:49.199Z,25.97
2022-11-29T03:49:21.813Z,24.07
2022-11-29T03:52:01.075Z,27.70
2022-11-29T03:54:36.043Z,26.37
2022-11-29T03:57:04.554Z,27.03
2022-11-29T03:59:56.211Z,26.80
2022-11-29T04:03:06.476Z,26.57
2022-11-29T04:06:03.341Z,29.67
2022-11-29T04:09:00.962Z,28.37
2022-11-29T04:12:05.072Z,26.63
2022-11-29T04:14:41.598Z,27.77
2022-11-29T04:17:58.707Z,28.23
2022-11-29T04:20:51.959Z,29.00
2022-11-29T04:23:48.166Z,33.63
2022-11-29T04:26:48.277Z,27.70
2022-11-29T04:29:37.415Z,28.00
2022-11-29T04:32:27.499Z,28.47
2022-11-29T04:35:11.320Z,29.07
2022-11-29T04:38:12.342Z,28.23
2022-11-29T04:40:57.290Z,29.43
2022-11-29T04:43:52.799Z,24.97
2022-11-29T04:46:37.704Z,27.17
2022-11-29T04:49:41.143Z,30.80
2022-11-29T04:52:35.893Z,31.07
2022-11-29T04:55:22.729Z,29.63
2022-11-29T04:58:01.165Z,27.83
2022-11-29T05:00:36.281Z,29.87
2022-11-29T05:03:12.685Z,30.90
2022-11-29T05:05:48.703Z,29.90
2022-11-29T05:08:29.417Z,32.50
2022-11-29T05:11:06.755Z,29.50
2022-11-29T05:13:43.991Z,30.27
2022-11-29T05:16:27.392Z,31.37
2022-11-29T05:19:30.577Z,30.97
2022-11-29T05:22:10.211Z,28.90
2022-11-29T05:24:53.721Z,29.13
2022-11-29T05:27:34.443Z,29.63
2022-11-29T05:30:07.152Z,28.33
2022-11-29T05:32:39.459Z,28.73
2022-11-29T05:35:33.962Z,30.70
2022-11-29T05:38:11.452Z,37.77
2022-11-29T05:40:47.174Z,34.67
2022-11-29T05:43:31.156Z,32.63
2022-11-29T05:46:07.013Z,29.43
2022-11-29T05:48:45.323Z,27.87
2022-11-29T05:51:22.398Z,33.03
2022-11-29T05:54:01.641Z,30.97
2022-11-29T05:56:41.681Z,30.53
2022-11-29T05:59:13.555Z,32.67
2022-11-29T06:01:49.555Z,30.30
2022-11-29T06:04:24.452Z,33.87
2022-11-29T06:07:03.735Z,32.70
2022-11-29T06:09:38.038Z,33.37
2022-11-29T06:12:16.998Z,33.87
2022-11-29T06:15:13.737Z,32.53
2022-11-29T06:18:03.275Z,31.83
2022-11-29T06:20:55.476Z,30.30
2022-11-29T06:23:54.400Z,31.27
2022-11-29T06:27:02.310Z,28.23
2022-11-29T06:29:39.282Z,31.83
2022-11-29T06:32:19.750Z,30.70
2022-11-29T06:34:55.064Z,30.33
2022-11-29T06:37:27.866Z,32.63
2022-11-29T06:39:57.466Z,27.77
2022-11-29T06:42:25.230Z,30.27
2022-11-29T06:44:53.428Z,34.87
2022-11-29T06:47:29.058Z,32.73
2022-11-29T06:50:04.063Z,32.67
2022-11-29T06:52:43.437Z,29.07
2022-11-29T06:55:19.026Z,31.70
2022-11-29T06:58:04.123Z,34.70
2022-11-29T07:00:41.894Z,30.67
2022-11-29T07:03:34.480Z,30.97
2022-11-29T07:06:10.040Z,28.67
2022-11-29T07:08:38.959Z,31.43
2022-11-29T07:11:10.486Z,30.83
2022-11-29T07:13:38.869Z,32.83
2022-11-29T07:16:17.840Z,34.80
2022-11-29T07:18:53.220Z,34.90
2022-11-29T07:21:27.315Z,31.43
2022-11-29T07:24:03.744Z,32.70
2022-11-29T07:26:40.438Z,30.10
2022-11-29T07:29:24.082Z,31.03
2022-11-29T07:32:04.446Z,31.77
2022-11-29T07:34:41.338Z,33.93
2022-11-29T07:37:17.695Z,30.37
2022-11-29T07:39:56.016Z,34.77
2022-11-29T07:42:32.721Z,32.37
2022-11-29T07:45:08.793Z,30.97
2022-11-29T07:47:36.519Z,32.23
2022-11-29T07:50:04.398Z,28.80
2022-11-29T07:52:32.119Z,33.20
2022-11-29T07:54:59.866Z,31.90
2022-11-29T07:57:29.061Z,33.30
2022-11-29T07:59:56.743Z,28.37
2022-11-29T08:02:28.862Z,32.57
2022-11-29T08:04:56.792Z,29.13
2022-11-29T08:07:25.086Z,29.97
2022-11-29T08:09:52.912Z,29.90
2022-11-29T08:12:20.801Z,31.40
2022-11-29T08:14:49.835Z,36.63
2022-11-29T08:17:18.668Z,56.13
2022-11-29T08:19:46.464Z,29.37
2022-11-29T08:22:14.253Z,40.70
2022-11-29T08:24:41.978Z,31.23
2022-11-29T08:27:09.742Z,31.77
2022-11-29T08:29:37.481Z,33.63
2022-11-29T08:32:07.134Z,29.93
2022-11-29T08:34:34.952Z,36.00
2022-11-29T08:37:02.637Z,30.57
2022-11-29T08:39:30.474Z,35.13
2022-11-29T08:41:58.596Z,32.00
2022-11-29T08:44:26.312Z,34.77
2022-11-29T08:47:11.734Z,35.63
2022-11-29T08:50:01.109Z,30.87
2022-11-29T08:52:46.086Z,32.20
2022-11-29T08:55:13.886Z,36.00
2022-11-29T08:57:41.706Z,36.10
2022-11-29T09:00:10.595Z,33.13
2022-11-29T09:02:38.680Z,33.43
2022-11-29T09:05:09.444Z,32.10
2022-11-29T09:07:37.458Z,33.07
2022-11-29T09:10:08.110Z,35.37
2022-11-29T09:12:36.608Z,31.17
2022-11-29T09:15:04.978Z,32.07
2022-11-29T09:17:32.933Z,32.70
2022-11-29T09:20:00.761Z,30.60
2022-11-29T09:22:29.838Z,30.17
2022-11-29T09:24:57.590Z,32.93
2022-11-29T09:27:25.234Z,28.17
2022-11-29T09:29:52.921Z,28.40
2022-11-29T09:32:20.536Z,28.27
2022-11-29T09:34:48.539Z,27.17
2022-11-29T09:37:16.337Z,26.90
2022-11-29T09:39:45.662Z,30.30
2022-11-29T09:42:28.008Z,30.23
2022-11-29T09:45:04.587Z,25.70
2022-11-29T09:47:56.258Z,26.70
2022-11-29T09:50:32.400Z,25.30
2022-11-29T09:53:18.637Z,29.80
2022-11-29T09:56:01.052Z,27.73
2022-11-29T09:58:33.933Z,23.80
2022-11-29T10:01:06.399Z,27.03
2022-11-29T10:03:39.312Z,28.83
2022-11-29T10:06:14.347Z,28.33
2022-11-29T10:08:49.291Z,28.20
2022-11-29T10:11:23.173Z,25.57
2022-11-29T10:13:54.836Z,30.10
2022-11-29T10:16:29.469Z,28.53
2022-11-29T10:19:06.060Z,29.47
2022-11-29T10:21:37.521Z,27.73
2022-11-29T10:24:10.835Z,27.97
2022-11-29T10:26:39.921Z,25.33
2022-11-29T10:29:07.690Z,27.83
2022-11-29T10:31:40.125Z,25.23
2022-11-29T10:34:14.395Z,25.60
2022-11-29T10:36:45.517Z,24.07
2022-11-29T10:39:17.591Z,26.00
2022-11-29T10:41:46.943Z,23.63
2022-11-29T10:44:15.987Z,23.23
2022-11-29T10:46:43.986Z,26.67
2022-11-29T10:49:15.463Z,30.83
2022-11-29T10:51:43.616Z,24.20
2022-11-29T10:54:22.625Z,25.27
2022-11-29T10:56:53.115Z,28.73
2022-11-29T10:59:23.352Z,26.67
2022-11-29T11:01:51.877Z,27.47
2022-11-29T11:04:28.773Z,27.70
2022-11-29T11:07:00.961Z,24.70
2022-11-29T11:09:34.206Z,25.97
2022-11-29T11:12:06.869Z,24.27
2022-11-29T11:14:37.512Z,27.57
2022-11-29T11:17:21.834Z,25.03
2022-11-29T11:19:57.992Z,22.40
2022-11-29T11:22:27.113Z,24.77
2022-11-29T11:25:01.032Z,21.90
2022-11-29T11:27:32.443Z,23.87
2022-11-29T11:30:01.411Z,21.40
2022-11-29T11:32:29.290Z,29.30
2022-11-29T11:34:59.125Z,21.23
2022-11-29T11:37:28.587Z,24.43
2022-11-29T11:39:58.410Z,23.53
2022-11-29T11:42:38.269Z,21.93
2022-11-29T11:45:24.200Z,21.03
2022-11-29T11:47:53.923Z,26.80
2022-11-29T11:50:29.931Z,24.33
2022-11-29T11:52:59.379Z,23.13
2022-11-29T11:55:33.237Z,22.60
2022-11-29T11:58:09.716Z,21.67
2022-11-29T12:03:36.895Z,26.67
2022-11-29T12:06:18.706Z,26.13
2022-11-29T12:08:48.497Z,21.00
2022-11-29T12:11:19.380Z,19.03
2022-11-29T12:13:51.840Z,18.87
2022-11-29T12:16:28.525Z,18.03
2022-11-29T12:19:00.401Z,23.70
2022-11-29T12:21:34.470Z,21.87
2022-11-29T12:24:09.278Z,19.43
2022-11-29T12:26:57.672Z,18.83
2022-11-29T12:29:30.280Z,18.57
2022-11-29T12:32:18.985Z,18.07
2022-11-29T12:35:02.959Z,18.97
2022-11-29T12:37:36.698Z,18.10
2022-11-29T12:40:12.158Z,21.43
2022-11-29T12:42:49.383Z,24.57
2022-11-29T12:45:30.203Z,16.90
2022-11-29T12:48:10.704Z,19.33
2022-11-29T12:50:47.427Z,17.20
2022-11-29T12:53:28.550Z,17.63
2022-11-29T12:56:08.356Z,20.00
2022-11-29T12:58:46.655Z,20.53
2022-11-29T13:01:26.122Z,19.60
2022-11-29T13:04:00.244Z,24.53
2022-11-29T13:06:35.566Z,25.80
2022-11-29T13:09:47.623Z,18.63
2022-11-29T13:12:22.053Z,18.57
2022-11-29T13:14:56.729Z,23.40
2022-11-29T13:17:32.531Z,21.40
2022-11-29T13:20:11.522Z,19.40
2022-11-29T13:22:47.537Z,21.87
2022-11-29T13:25:19.511Z,21.27
2022-11-29T13:27:54.843Z,22.80
2022-11-29T13:30:23.021Z,25.20
2022-11-29T13:32:58.487Z,21.27
2022-11-29T13:35:37.268Z,22.13
2022-11-29T13:38:14.513Z,21.10
2022-11-29T13:40:55.370Z,23.33
2022-11-29T13:43:30.784Z,24.27
2022-11-29T13:46:08.319Z,22.83
2022-11-29T13:48:47.807Z,22.13
2022-11-29T13:51:26.809Z,22.37
2022-11-29T13:53:56.072Z,28.17
2022-11-29T13:56:36.629Z,20.37
2022-11-29T13:59:08.787Z,21.90
2022-11-29T14:01:48.318Z,23.67
2022-11-29T14:04:25.907Z,20.00
2022-11-29T14:07:14.287Z,18.60
2022-11-29T14:09:51.167Z,22.23
2022-11-29T14:12:35.789Z,20.30
2022-11-29T14:15:17.363Z,19.13
2022-11-29T14:17:56.602Z,18.27
2022-11-29T14:20:58.174Z,25.13
2022-11-29T14:23:36.317Z,21.80
2022-11-29T14:26:28.731Z,20.50
2022-11-29T14:28:57.927Z,21.13
2022-11-29T14:31:52.382Z,22.23
2022-11-29T14:34:46.073Z,22.00
2022-11-29T14:37:29.789Z,22.97
2022-11-29T14:40:02.369Z,20.33
2022-11-29T14:42:30.696Z,23.67
2022-11-29T14:45:01.547Z,21.10
2022-11-29T14:47:35.038Z,16.77
2022-11-29T14:50:07.420Z,19.20
2022-11-29T14:52:38.910Z,22.07
2022-11-29T14:55:28.910Z,21.73
2022-11-29T14:58:07.677Z,21.40
2022-11-29T15:00:55.268Z,20.97
2022-11-29T15:03:31.729Z,21.30
2022-11-29T15:06:02.095Z,18.33
2022-11-29T15:08:35.584Z,17.87
2022-11-29T15:11:14.532Z,17.73
2022-11-29T15:13:56.039Z,20.70
2022-11-29T15:16:36.445Z,20.13
2022-11-29T15:19:36.589Z,17.40
2022-11-29T15:22:09.754Z,20.23
2022-11-29T15:24:51.854Z,19.67
2022-11-29T15:27:21.526Z,20.10
2022-11-29T15:29:50.463Z,21.00
2022-11-29T15:32:23.960Z,21.53
2022-11-29T15:34:53.832Z,23.37
2022-11-29T15:37:27.113Z,22.27
2022-11-29T15:40:05.799Z,19.73
2022-11-29T15:42:42.548Z,21.77
2022-11-29T15:45:32.888Z,23.37
2022-11-29T15:48:16.728Z,17.90
2022-11-29T15:50:51.029Z,24.23
2022-11-29T15:53:23.444Z,22.50
2022-11-29T15:55:55.130Z,20.93
2022-11-29T15:58:26.317Z,24.00
2022-11-29T16:00:55.311Z,21.97
2022-11-29T16:03:26.224Z,23.77
2022-11-29T16:06:02.585Z,21.97
2022-11-29T16:08:34.124Z,22.57
2022-11-29T16:11:02.188Z,20.80
2022-11-29T16:13:35.631Z,24.20
2022-11-29T16:16:07.748Z,22.37
2022-11-29T16:18:36.056Z,19.53
2022-11-29T16:21:06.411Z,21.83
2022-11-29T16:23:35.291Z,39.27
2022-11-29T16:26:14.232Z,41.37
2022-11-29T16:28:45.434Z,22.10
2022-11-29T16:31:18.100Z,23.33
2022-11-29T16:33:47.436Z,22.73
2022-11-29T16:36:18.285Z,19.87
2022-11-29T16:38:47.868Z,20.37
2022-11-29T16:41:24.771Z,19.10
2022-11-29T16:43:57.441Z,20.77
2022-11-29T16:46:34.343Z,18.17
2022-11-29T16:49:04.269Z,20.70
2022-11-29T16:51:39.740Z,17.77
2022-11-29T16:54:23.652Z,19.80
2022-11-29T16:56:52.822Z,20.30
2022-11-29T16:59:27.370Z,20.80
2022-11-29T17:01:56.467Z,19.70
2022-11-29T17:04:25.002Z,15.33
2022-11-29T17:06:53.422Z,13.43
2022-11-29T17:09:24.986Z,12.70
2022-11-29T17:11:53.320Z,13.53
2022-11-29T17:14:22.800Z,12.20
2022-11-29T17:16:51.854Z,14.83
2022-11-29T17:19:23.992Z,12.47
2022-11-29T17:21:52.701Z,14.33
2022-11-29T17:24:23.168Z,10.50
2022-11-29T17:26:51.626Z,10.80
2022-11-29T17:29:20.098Z,11.43
2022-11-29T17:31:50.523Z,12.03
2022-11-29T17:34:18.805Z,13.37
2022-11-29T17:36:46.694Z,10.77
2022-11-29T17:39:15.570Z,11.70
2022-11-29T17:41:43.548Z,13.23
2022-11-29T17:44:11.412Z,14.63
2022-11-29T17:46:39.408Z,12.53
2022-11-29T17:49:10.303Z,12.90
2022-11-29T17:51:55.462Z,13.13
2022-11-29T17:54:23.760Z,12.33
2022-11-29T17:56:51.863Z,14.40
2022-11-29T17:59:20.446Z,13.33
2022-11-29T18:01:48.477Z,15.63
2022-11-29T18:04:19.259Z,14.30
2022-11-29T18:06:50.226Z,12.97
2022-11-29T18:09:19.485Z,13.30
2022-11-29T18:11:49.925Z,13.37
2022-11-29T18:14:20.757Z,12.57
2022-11-29T18:16:48.937Z,12.73
2022-11-29T18:19:19.939Z,12.43
2022-11-29T18:21:47.707Z,15.43
2022-11-29T18:24:15.672Z,18.00
2022-11-29T18:26:43.573Z,16.60
2022-11-29T18:29:11.407Z,15.40
2022-11-29T18:31:41.658Z,13.97
2022-11-29T18:34:11.058Z,13.47
2022-11-29T18:36:43.395Z,15.17
2022-11-29T18:39:14.961Z,14.40
2022-11-29T18:41:43.753Z,16.97
2022-11-29T18:44:13.757Z,15.50
2022-11-29T18:46:47.455Z,16.47
2022-11-29T18:49:16.861Z,18.40
2022-11-29T18:51:46.996Z,12.93
2022-11-29T18:54:15.838Z,14.07
2022-11-29T18:56:44.372Z,14.43
2022-11-29T18:59:16.462Z,16.07
2022-11-29T19:01:46.181Z,16.40
2022-11-29T19:04:15.888Z,16.50
2022-11-29T19:06:45.078Z,15.33
2022-11-29T19:09:14.754Z,17.20
2022-11-29T19:11:42.891Z,15.67
2022-11-29T19:14:12.879Z,16.47
2022-11-29T19:16:42.437Z,15.70
2022-11-29T19:19:10.216Z,17.17
2022-11-29T19:21:39.610Z,16.53
2022-11-29T19:24:14.832Z,17.33
2022-11-29T19:26:44.793Z,14.30
2022-11-29T19:29:13.141Z,14.00
2022-11-29T19:31:41.244Z,13.73
2022-11-29T19:34:09.177Z,15.93
2022-11-29T19:36:42.597Z,16.43
2022-11-29T19:39:13.948Z,17.13
2022-11-29T19:41:43.298Z,17.60
2022-11-29T19:44:11.653Z,17.33
2022-11-29T19:46:41.636Z,17.57
2022-11-29T19:49:10.201Z,19.10
2022-11-29T19:51:38.570Z,17.83
2022-11-29T19:54:08.227Z,17.20
2022-11-29T19:56:38.075Z,21.57
2022-11-29T19:59:07.412Z,18.20
2022-11-29T20:01:40.711Z,20.93
2022-11-29T20:04:09.509Z,19.13
2022-11-29T20:06:37.563Z,19.80
2022-11-29T20:09:06.365Z,20.87
2022-11-29T20:11:34.126Z,22.13
2022-11-29T20:14:05.308Z,19.27
2022-11-29T20:16:33.801Z,18.03
2022-11-29T20:19:01.765Z,18.73
2022-11-29T20:21:31.192Z,17.90
2022-11-29T20:24:00.498Z,18.47
2022-11-29T20:26:29.275Z,20.10
2022-11-29T20:28:57.051Z,21.30
2022-11-29T20:31:26.574Z,17.20
2022-11-29T20:33:57.304Z,20.77
2022-11-29T20:36:40.598Z,19.33
2022-11-29T20:39:17.581Z,18.63
2022-11-29T20:41:53.875Z,21.37
2022-11-29T20:44:26.678Z,20.07
2022-11-29T20:46:56.237Z,19.60
2022-11-29T20:49:24.486Z,17.70
2022-11-29T20:51:56.800Z,18.17
2022-11-29T20:54:24.539Z,20.87
2022-11-29T20:56:52.262Z,17.37
2022-11-29T20:59:19.970Z,17.60
2022-11-29T21:01:47.760Z,19.13
2022-11-29T21:04:22.903Z,17.23
2022-11-29T21:06:51.272Z,17.70
2022-11-29T21:09:18.956Z,16.83
2022-11-29T21:11:47.083Z,17.37
2022-11-29T21:14:15.489Z,18.67
2022-11-29T21:16:43.647Z,19.87
2022-11-29T21:19:17.087Z,18.67
2022-11-29T21:21:58.704Z,17.57
2022-11-29T21:24:40.704Z,19.70
2022-11-29T21:27:14.737Z,19.73
2022-11-29T21:29:43.093Z,21.57
2022-11-29T21:32:21.739Z,17.07
2022-11-29T21:34:50.175Z,19.07
2022-11-29T21:37:21.547Z,18.20
2022-11-29T21:39:51.483Z,21.00
2022-11-29T21:42:19.486Z,17.50
2022-11-29T21:44:47.558Z,20.43
2022-11-29T21:47:15.901Z,17.33
2022-11-29T21:49:43.687Z,19.27
2022-11-29T21:52:19.020Z,18.57
2022-11-29T21:54:51.704Z,19.37
2022-11-29T21:57:19.468Z,18.20
2022-11-29T21:59:47.275Z,17.20
2022-11-29T22:02:15.193Z,18.80
2022-11-29T22:04:43.788Z,19.60
2022-11-29T22:07:11.718Z,18.73
2022-11-29T22:09:39.708Z,15.43
2022-11-29T22:12:32.539Z,15.63
2022-11-29T22:14:57.516Z,15.23
2022-11-29T22:17:25.387Z,14.93
2022-11-29T22:19:53.053Z,15.37
2022-11-29T22:22:20.871Z,17.13
2022-11-29T22:24:48.855Z,15.77
2022-11-29T22:27:18.585Z,13.23
2022-11-29T22:29:46.423Z,13.47
2022-11-29T22:32:14.187Z,14.20
2022-11-29T22:34:42.202Z,13.03
2022-11-29T22:37:12.427Z,15.13
2022-11-29T22:39:40.168Z,17.83
2022-11-29T22:42:08.092Z,12.07
2022-11-29T22:44:37.322Z,15.03
2022-11-29T22:47:05.124Z,14.13
2022-11-29T22:49:33.318Z,15.60
2022-11-29T22:52:01.180Z,15.50
2022-11-29T22:54:28.962Z,17.83
2022-11-29T22:56:56.754Z,13.17
2022-11-29T22:59:24.545Z,17.23
2022-11-29T23:01:53.740Z,16.13
2022-11-29T23:04:21.561Z,13.17
2022-11-29T23:06:49.458Z,17.70
2022-11-29T23:09:21.663Z,15.57
2022-11-29T23:11:52.108Z,14.77
2022-11-29T23:14:20.456Z,15.13
2022-11-29T23:16:48.407Z,15.20
2022-11-29T23:19:18.338Z,16.43
2022-11-29T23:21:46.532Z,15.10
2022-11-29T23:24:15.131Z,17.73
2022-11-29T23:26:45.384Z,13.70
2022-11-29T23:29:15.314Z,15.97
2022-11-29T23:31:43.641Z,15.27
2022-11-29T23:34:11.533Z,15.37
2022-11-29T23:36:40.933Z,13.10
2022-11-29T23:39:08.986Z,13.63
2022-11-29T23:41:37.927Z,14.43
2022-11-29T23:44:06.567Z,14.70
2022-11-29T23:46:37.237Z,15.03
2022-11-29T23:49:05.066Z,13.80
2022-11-29T23:51:32.793Z,17.17
2022-11-29T23:54:01.899Z,13.33
2022-11-29T23:56:35.036Z,14.10
2022-11-29T23:59:02.691Z,13.13
